sensor_id;sensor_type;location;lat;lon;timestamp;P1;durP1;ratioP1;P2;durP2;ratioP2
26277;SDS011;14000;52.056;8.510;2024-03-25T00:01:59;20.10;;;4.60;;
26277;SDS011;14000;52.056;8.510;2024-03-25T00:04:24;21.97;;;4.23;;
26277;SDS011;14000;52.056;8.510;2024-03-25T00:06:50;19.03;;;3.80;;
26277;SDS011;14000;52.056;8.510;2024-03-25T00:09:16;20.63;;;4.10;;
26277;SDS011;14000;52.056;8.510;2024-03-25T00:11:42;24.67;;;5.40;;
26277;SDS011;14000;52.056;8.510;2024-03-25T00:14:08;24.53;;;4.00;;
26277;SDS011;14000;52.056;8.510;2024-03-25T00:16:34;23.83;;;4.40;;
26277;SDS011;14000;52.056;8.510;2024-03-25T00:19:00;26.63;;;4.50;;
26277;SDS011;14000;52.056;8.510;2024-03-25T00:21:25;18.40;;;4.07;;
26277;SDS011;14000;52.056;8.510;2024-03-25T00:23:51;23.50;;;3.70;;
26277;SDS011;14000;52.056;8.510;2024-03-25T00:26:16;20.20;;;4.30;;
26277;SDS011;14000;52.056;8.510;2024-03-25T00:28:42;21.73;;;4.17;;
26277;SDS011;14000;52.056;8.510;2024-03-25T00:31:08;25.60;;;4.43;;
26277;SDS011;14000;52.056;8.510;2024-03-25T00:33:34;18.07;;;4.30;;
26277;SDS011;14000;52.056;8.510;2024-03-25T00:36:00;24.20;;;4.07;;
26277;SDS011;14000;52.056;8.510;2024-03-25T00:38:25;26.70;;;5.20;;
26277;SDS011;14000;52.056;8.510;2024-03-25T00:40:51;24.97;;;4.47;;
26277;SDS011;14000;52.056;8.510;2024-03-25T00:43:16;27.30;;;4.73;;
26277;SDS011;14000;52.056;8.510;2024-03-25T00:45:42;20.47;;;4.57;;
26277;SDS011;14000;52.056;8.510;2024-03-25T00:48:08;26.67;;;4.27;;
26277;SDS011;14000;52.056;8.510;2024-03-25T00:50:34;19.27;;;4.23;;
26277;SDS011;14000;52.056;8.510;2024-03-25T00:52:59;14.07;;;4.13;;
26277;SDS011;14000;52.056;8.510;2024-03-25T00:55:25;14.60;;;3.87;;
26277;SDS011;14000;52.056;8.510;2024-03-25T00:57:50;26.57;;;5.30;;
26277;SDS011;14000;52.056;8.510;2024-03-25T01:00:16;13.67;;;3.53;;
26277;SDS011;14000;52.056;8.510;2024-03-25T01:02:42;25.63;;;5.30;;
26277;SDS011;14000;52.056;8.510;2024-03-25T01:05:08;21.90;;;4.43;;
26277;SDS011;14000;52.056;8.510;2024-03-25T01:07:34;19.53;;;3.70;;
26277;SDS011;14000;52.056;8.510;2024-03-25T01:10:00;17.10;;;4.17;;
26277;SDS011;14000;52.056;8.510;2024-03-25T01:12:25;19.27;;;4.23;;
26277;SDS011;14000;52.056;8.510;2024-03-25T01:14:51;24.23;;;4.03;;
26277;SDS011;14000;52.056;8.510;2024-03-25T01:17:18;24.00;;;4.27;;
26277;SDS011;14000;52.056;8.510;2024-03-25T01:19:43;25.23;;;4.40;;
26277;SDS011;14000;52.056;8.510;2024-03-25T01:22:09;21.17;;;4.50;;
26277;SDS011;14000;52.056;8.510;2024-03-25T01:24:35;20.43;;;4.50;;
26277;SDS011;14000;52.056;8.510;2024-03-25T01:27:01;24.30;;;4.77;;
26277;SDS011;14000;52.056;8.510;2024-03-25T01:29:27;27.87;;;4.20;;
26277;SDS011;14000;52.056;8.510;2024-03-25T01:31:52;24.60;;;4.00;;
26277;SDS011;14000;52.056;8.510;2024-03-25T01:34:18;20.70;;;4.30;;
26277;SDS011;14000;52.056;8.510;2024-03-25T01:36:44;19.63;;;4.40;;
26277;SDS011;14000;52.056;8.510;2024-03-25T01:39:10;25.63;;;4.90;;
26277;SDS011;14000;52.056;8.510;2024-03-25T01:41:36;19.13;;;4.63;;
26277;SDS011;14000;52.056;8.510;2024-03-25T01:44:01;28.27;;;4.53;;
26277;SDS011;14000;52.056;8.510;2024-03-25T01:46:27;32.67;;;5.57;;
26277;SDS011;14000;52.056;8.510;2024-03-25T01:48:53;25.33;;;5.23;;
26277;SDS011;14000;52.056;8.510;2024-03-25T01:51:20;30.67;;;4.97;;
26277;SDS011;14000;52.056;8.510;2024-03-25T01:53:47;23.87;;;4.83;;
26277;SDS011;14000;52.056;8.510;2024-03-25T01:56:13;26.70;;;5.30;;
26277;SDS011;14000;52.056;8.510;2024-03-25T01:58:40;31.87;;;5.73;;
26277;SDS011;14000;52.056;8.510;2024-03-25T02:01:06;28.23;;;6.40;;
26277;SDS011;14000;52.056;8.510;2024-03-25T02:03:35;22.40;;;5.13;;
26277;SDS011;14000;52.056;8.510;2024-03-25T02:06:02;32.10;;;4.97;;
26277;SDS011;14000;52.056;8.510;2024-03-25T02:08:33;26.33;;;4.77;;
26277;SDS011;14000;52.056;8.510;2024-03-25T02:10:59;29.60;;;5.10;;
26277;SDS011;14000;52.056;8.510;2024-03-25T02:13:25;22.97;;;5.23;;
26277;SDS011;14000;52.056;8.510;2024-03-25T02:15:51;25.27;;;4.63;;
26277;SDS011;14000;52.056;8.510;2024-03-25T02:18:18;25.67;;;4.87;;
26277;SDS011;14000;52.056;8.510;2024-03-25T02:20:44;27.03;;;5.40;;
26277;SDS011;14000;52.056;8.510;2024-03-25T02:23:10;23.30;;;4.67;;
26277;SDS011;14000;52.056;8.510;2024-03-25T02:25:37;23.20;;;4.80;;
26277;SDS011;14000;52.056;8.510;2024-03-25T02:28:04;20.63;;;5.00;;
26277;SDS011;14000;52.056;8.510;2024-03-25T02:30:30;23.40;;;4.63;;
26277;SDS011;14000;52.056;8.510;2024-03-25T02:32:55;21.77;;;4.10;;
26277;SDS011;14000;52.056;8.510;2024-03-25T02:35:21;20.70;;;5.03;;
26277;SDS011;14000;52.056;8.510;2024-03-25T02:37:50;20.90;;;4.27;;
26277;SDS011;14000;52.056;8.510;2024-03-25T02:40:16;20.23;;;4.53;;
26277;SDS011;14000;52.056;8.510;2024-03-25T02:42:43;22.93;;;4.20;;
26277;SDS011;14000;52.056;8.510;2024-03-25T02:45:09;21.23;;;5.00;;
26277;SDS011;14000;52.056;8.510;2024-03-25T02:47:35;22.17;;;4.87;;
26277;SDS011;14000;52.056;8.510;2024-03-25T02:50:00;21.30;;;4.60;;
26277;SDS011;14000;52.056;8.510;2024-03-25T02:52:26;26.60;;;4.67;;
26277;SDS011;14000;52.056;8.510;2024-03-25T02:54:51;21.47;;;4.80;;
26277;SDS011;14000;52.056;8.510;2024-03-25T02:57:19;19.17;;;4.13;;
26277;SDS011;14000;52.056;8.510;2024-03-25T02:59:44;18.93;;;4.03;;
26277;SDS011;14000;52.056;8.510;2024-03-25T03:02:10;28.30;;;4.00;;
26277;SDS011;14000;52.056;8.510;2024-03-25T03:04:36;25.93;;;4.87;;
26277;SDS011;14000;52.056;8.510;2024-03-25T03:07:01;18.80;;;3.97;;
26277;SDS011;14000;52.056;8.510;2024-03-25T03:09:27;23.93;;;4.03;;
26277;SDS011;14000;52.056;8.510;2024-03-25T03:11:52;26.33;;;5.17;;
26277;SDS011;14000;52.056;8.510;2024-03-25T03:14:18;22.47;;;4.50;;
26277;SDS011;14000;52.056;8.510;2024-03-25T03:16:44;22.40;;;4.80;;
26277;SDS011;14000;52.056;8.510;2024-03-25T03:19:09;29.13;;;5.17;;
26277;SDS011;14000;52.056;8.510;2024-03-25T03:21:35;22.07;;;4.70;;
26277;SDS011;14000;52.056;8.510;2024-03-25T03:24:01;26.13;;;5.40;;
26277;SDS011;14000;52.056;8.510;2024-03-25T03:26:27;27.23;;;5.40;;
26277;SDS011;14000;52.056;8.510;2024-03-25T03:28:53;22.80;;;5.23;;
26277;SDS011;14000;52.056;8.510;2024-03-25T03:31:19;20.50;;;5.13;;
26277;SDS011;14000;52.056;8.510;2024-03-25T03:33:46;25.83;;;5.23;;
26277;SDS011;14000;52.056;8.510;2024-03-25T03:36:13;25.90;;;5.20;;
26277;SDS011;14000;52.056;8.510;2024-03-25T03:38:40;28.20;;;6.00;;
26277;SDS011;14000;52.056;8.510;2024-03-25T03:41:05;30.97;;;5.40;;
26277;SDS011;14000;52.056;8.510;2024-03-25T03:43:31;29.70;;;5.83;;
26277;SDS011;14000;52.056;8.510;2024-03-25T03:45:57;31.17;;;5.53;;
26277;SDS011;14000;52.056;8.510;2024-03-25T03:48:23;26.93;;;5.67;;
26277;SDS011;14000;52.056;8.510;2024-03-25T03:50:48;26.50;;;4.77;;
26277;SDS011;14000;52.056;8.510;2024-03-25T03:53:14;25.90;;;5.10;;
26277;SDS011;14000;52.056;8.510;2024-03-25T03:55:39;26.90;;;4.80;;
26277;SDS011;14000;52.056;8.510;2024-03-25T03:58:05;31.40;;;6.30;;
26277;SDS011;14000;52.056;8.510;2024-03-25T04:00:34;25.90;;;4.50;;
26277;SDS011;14000;52.056;8.510;2024-03-25T04:03:00;26.57;;;4.73;;
26277;SDS011;14000;52.056;8.510;2024-03-25T04:05:29;29.27;;;5.23;;
26277;SDS011;14000;52.056;8.510;2024-03-25T04:07:55;28.47;;;5.83;;
26277;SDS011;14000;52.056;8.510;2024-03-25T04:10:22;34.07;;;5.83;;
26277;SDS011;14000;52.056;8.510;2024-03-25T04:12:47;27.10;;;4.93;;
26277;SDS011;14000;52.056;8.510;2024-03-25T04:15:13;28.07;;;5.20;;
26277;SDS011;14000;52.056;8.510;2024-03-25T04:17:42;29.37;;;5.70;;
26277;SDS011;14000;52.056;8.510;2024-03-25T04:20:10;25.50;;;5.10;;
26277;SDS011;14000;52.056;8.510;2024-03-25T04:22:36;23.33;;;4.93;;
26277;SDS011;14000;52.056;8.510;2024-03-25T04:25:05;26.50;;;6.10;;
26277;SDS011;14000;52.056;8.510;2024-03-25T04:27:31;24.57;;;4.93;;
26277;SDS011;14000;52.056;8.510;2024-03-25T04:29:57;37.93;;;6.67;;
26277;SDS011;14000;52.056;8.510;2024-03-25T04:32:22;27.23;;;6.80;;
26277;SDS011;14000;52.056;8.510;2024-03-25T04:34:48;24.47;;;5.60;;
26277;SDS011;14000;52.056;8.510;2024-03-25T04:37:13;25.47;;;4.67;;
26277;SDS011;14000;52.056;8.510;2024-03-25T04:39:40;20.23;;;4.53;;
26277;SDS011;14000;52.056;8.510;2024-03-25T04:42:05;32.47;;;5.23;;
26277;SDS011;14000;52.056;8.510;2024-03-25T04:44:31;23.67;;;5.30;;
26277;SDS011;14000;52.056;8.510;2024-03-25T04:46:57;28.20;;;5.40;;
26277;SDS011;14000;52.056;8.510;2024-03-25T04:49:22;29.20;;;5.10;;
26277;SDS011;14000;52.056;8.510;2024-03-25T04:51:48;31.30;;;5.07;;
26277;SDS011;14000;52.056;8.510;2024-03-25T04:54:16;33.20;;;5.70;;
26277;SDS011;14000;52.056;8.510;2024-03-25T04:56:42;27.57;;;5.67;;
26277;SDS011;14000;52.056;8.510;2024-03-25T04:59:09;26.90;;;6.30;;
26277;SDS011;14000;52.056;8.510;2024-03-25T05:01:34;23.40;;;5.47;;
26277;SDS011;14000;52.056;8.510;2024-03-25T05:04:01;25.73;;;5.23;;
26277;SDS011;14000;52.056;8.510;2024-03-25T05:06:27;28.70;;;5.33;;
26277;SDS011;14000;52.056;8.510;2024-03-25T05:08:53;31.57;;;5.97;;
26277;SDS011;14000;52.056;8.510;2024-03-25T05:11:18;28.73;;;6.50;;
26277;SDS011;14000;52.056;8.510;2024-03-25T05:13:44;31.73;;;5.83;;
26277;SDS011;14000;52.056;8.510;2024-03-25T05:16:10;25.07;;;5.20;;
26277;SDS011;14000;52.056;8.510;2024-03-25T05:18:36;29.70;;;5.33;;
26277;SDS011;14000;52.056;8.510;2024-03-25T05:21:01;25.63;;;4.93;;
26277;SDS011;14000;52.056;8.510;2024-03-25T05:23:27;29.67;;;6.07;;
26277;SDS011;14000;52.056;8.510;2024-03-25T05:25:52;25.50;;;6.17;;
26277;SDS011;14000;52.056;8.510;2024-03-25T05:28:18;29.37;;;5.93;;
26277;SDS011;14000;52.056;8.510;2024-03-25T05:30:44;29.97;;;6.23;;
26277;SDS011;14000;52.056;8.510;2024-03-25T05:33:10;32.43;;;6.00;;
26277;SDS011;14000;52.056;8.510;2024-03-25T05:35:35;27.20;;;5.60;;
26277;SDS011;14000;52.056;8.510;2024-03-25T05:38:02;22.10;;;5.40;;
26277;SDS011;14000;52.056;8.510;2024-03-25T05:40:28;32.47;;;6.57;;
26277;SDS011;14000;52.056;8.510;2024-03-25T05:42:54;21.53;;;5.43;;
26277;SDS011;14000;52.056;8.510;2024-03-25T05:45:19;26.93;;;5.77;;
26277;SDS011;14000;52.056;8.510;2024-03-25T05:47:45;26.90;;;6.07;;
26277;SDS011;14000;52.056;8.510;2024-03-25T05:50:11;30.43;;;6.43;;
26277;SDS011;14000;52.056;8.510;2024-03-25T05:52:36;27.43;;;6.23;;
26277;SDS011;14000;52.056;8.510;2024-03-25T05:55:02;27.00;;;6.70;;
26277;SDS011;14000;52.056;8.510;2024-03-25T05:57:27;26.33;;;6.20;;
26277;SDS011;14000;52.056;8.510;2024-03-25T05:59:53;31.07;;;6.00;;
26277;SDS011;14000;52.056;8.510;2024-03-25T06:02:18;29.10;;;5.73;;
26277;SDS011;14000;52.056;8.510;2024-03-25T06:04:44;24.33;;;5.80;;
26277;SDS011;14000;52.056;8.510;2024-03-25T06:07:10;33.03;;;6.77;;
26277;SDS011;14000;52.056;8.510;2024-03-25T06:09:35;33.10;;;6.20;;
26277;SDS011;14000;52.056;8.510;2024-03-25T06:12:01;28.77;;;5.40;;
26277;SDS011;14000;52.056;8.510;2024-03-25T06:14:26;30.23;;;5.97;;
26277;SDS011;14000;52.056;8.510;2024-03-25T06:16:52;30.30;;;5.50;;
26277;SDS011;14000;52.056;8.510;2024-03-25T06:19:18;32.57;;;6.97;;
26277;SDS011;14000;52.056;8.510;2024-03-25T06:21:43;19.30;;;5.00;;
26277;SDS011;14000;52.056;8.510;2024-03-25T06:24:10;30.30;;;6.80;;
26277;SDS011;14000;52.056;8.510;2024-03-25T06:26:36;19.47;;;5.20;;
26277;SDS011;14000;52.056;8.510;2024-03-25T06:29:01;33.70;;;6.53;;
26277;SDS011;14000;52.056;8.510;2024-03-25T06:31:27;24.73;;;5.27;;
26277;SDS011;14000;52.056;8.510;2024-03-25T06:34:28;21.33;;;5.93;;
26277;SDS011;14000;52.056;8.510;2024-03-25T06:36:54;30.13;;;6.27;;
26277;SDS011;14000;52.056;8.510;2024-03-25T06:39:19;19.63;;;6.37;;
26277;SDS011;14000;52.056;8.510;2024-03-25T06:41:45;25.73;;;5.77;;
26277;SDS011;14000;52.056;8.510;2024-03-25T06:44:10;29.53;;;6.57;;
26277;SDS011;14000;52.056;8.510;2024-03-25T06:46:36;22.07;;;5.67;;
26277;SDS011;14000;52.056;8.510;2024-03-25T06:49:01;26.33;;;5.87;;
26277;SDS011;14000;52.056;8.510;2024-03-25T06:51:27;31.07;;;7.20;;
26277;SDS011;14000;52.056;8.510;2024-03-25T06:53:53;29.67;;;7.30;;
26277;SDS011;14000;52.056;8.510;2024-03-25T06:56:19;27.50;;;6.93;;
26277;SDS011;14000;52.056;8.510;2024-03-25T06:58:45;26.20;;;6.33;;
26277;SDS011;14000;52.056;8.510;2024-03-25T07:01:10;22.47;;;6.03;;
26277;SDS011;14000;52.056;8.510;2024-03-25T07:03:39;23.77;;;6.87;;
26277;SDS011;14000;52.056;8.510;2024-03-25T07:06:04;27.07;;;7.07;;
26277;SDS011;14000;52.056;8.510;2024-03-25T07:08:30;27.90;;;6.87;;
26277;SDS011;14000;52.056;8.510;2024-03-25T07:10:56;32.80;;;6.47;;
26277;SDS011;14000;52.056;8.510;2024-03-25T07:13:23;26.53;;;7.27;;
26277;SDS011;14000;52.056;8.510;2024-03-25T07:15:48;27.63;;;6.57;;
26277;SDS011;14000;52.056;8.510;2024-03-25T07:18:14;25.27;;;7.50;;
26277;SDS011;14000;52.056;8.510;2024-03-25T07:20:41;31.57;;;7.87;;
26277;SDS011;14000;52.056;8.510;2024-03-25T07:23:08;24.83;;;7.73;;
26277;SDS011;14000;52.056;8.510;2024-03-25T07:25:34;26.90;;;8.20;;
26277;SDS011;14000;52.056;8.510;2024-03-25T07:28:00;30.97;;;8.67;;
26277;SDS011;14000;52.056;8.510;2024-03-25T07:30:26;33.47;;;9.13;;
26277;SDS011;14000;52.056;8.510;2024-03-25T07:32:55;33.27;;;8.97;;
26277;SDS011;14000;52.056;8.510;2024-03-25T07:35:21;30.57;;;9.17;;
26277;SDS011;14000;52.056;8.510;2024-03-25T07:37:47;32.00;;;8.60;;
26277;SDS011;14000;52.056;8.510;2024-03-25T07:40:16;31.97;;;8.73;;
26277;SDS011;14000;52.056;8.510;2024-03-25T07:42:46;26.53;;;8.50;;
26277;SDS011;14000;52.056;8.510;2024-03-25T07:45:11;32.97;;;8.90;;
26277;SDS011;14000;52.056;8.510;2024-03-25T07:47:37;26.47;;;7.80;;
26277;SDS011;14000;52.056;8.510;2024-03-25T07:50:02;27.43;;;7.77;;
26277;SDS011;14000;52.056;8.510;2024-03-25T07:52:29;33.33;;;7.80;;
26277;SDS011;14000;52.056;8.510;2024-03-25T07:54:55;36.60;;;11.60;;
26277;SDS011;14000;52.056;8.510;2024-03-25T07:57:20;27.67;;;8.60;;
26277;SDS011;14000;52.056;8.510;2024-03-25T07:59:46;31.37;;;8.17;;
26277;SDS011;14000;52.056;8.510;2024-03-25T08:02:12;28.77;;;10.07;;
26277;SDS011;14000;52.056;8.510;2024-03-25T08:04:38;29.07;;;7.90;;
26277;SDS011;14000;52.056;8.510;2024-03-25T08:07:04;26.07;;;7.80;;
26277;SDS011;14000;52.056;8.510;2024-03-25T08:09:29;35.50;;;9.17;;
26277;SDS011;14000;52.056;8.510;2024-03-25T08:11:55;30.23;;;8.50;;
26277;SDS011;14000;52.056;8.510;2024-03-25T08:14:21;31.40;;;8.87;;
26277;SDS011;14000;52.056;8.510;2024-03-25T08:16:47;28.80;;;7.67;;
26277;SDS011;14000;52.056;8.510;2024-03-25T08:19:12;30.57;;;7.97;;
26277;SDS011;14000;52.056;8.510;2024-03-25T08:21:38;30.80;;;6.97;;
26277;SDS011;14000;52.056;8.510;2024-03-25T08:24:04;27.37;;;7.27;;
26277;SDS011;14000;52.056;8.510;2024-03-25T08:26:30;27.53;;;7.03;;
26277;SDS011;14000;52.056;8.510;2024-03-25T08:28:55;25.87;;;7.20;;
26277;SDS011;14000;52.056;8.510;2024-03-25T08:31:21;23.63;;;7.77;;
26277;SDS011;14000;52.056;8.510;2024-03-25T08:33:46;27.80;;;6.40;;
26277;SDS011;14000;52.056;8.510;2024-03-25T08:36:12;29.50;;;7.03;;
26277;SDS011;14000;52.056;8.510;2024-03-25T08:38:37;22.17;;;5.77;;
26277;SDS011;14000;52.056;8.510;2024-03-25T08:41:03;34.37;;;7.30;;
26277;SDS011;14000;52.056;8.510;2024-03-25T08:43:29;22.30;;;6.30;;
26277;SDS011;14000;52.056;8.510;2024-03-25T08:45:54;20.87;;;5.10;;
26277;SDS011;14000;52.056;8.510;2024-03-25T08:48:20;28.40;;;5.33;;
26277;SDS011;14000;52.056;8.510;2024-03-25T08:50:46;22.97;;;5.57;;
26277;SDS011;14000;52.056;8.510;2024-03-25T08:53:11;28.03;;;5.93;;
26277;SDS011;14000;52.056;8.510;2024-03-25T08:55:37;28.00;;;5.93;;
26277;SDS011;14000;52.056;8.510;2024-03-25T08:58:03;27.07;;;5.73;;
26277;SDS011;14000;52.056;8.510;2024-03-25T09:00:28;25.27;;;5.37;;
26277;SDS011;14000;52.056;8.510;2024-03-25T09:02:54;26.50;;;6.97;;
26277;SDS011;14000;52.056;8.510;2024-03-25T09:05:20;25.37;;;5.53;;
26277;SDS011;14000;52.056;8.510;2024-03-25T09:07:49;27.33;;;5.53;;
26277;SDS011;14000;52.056;8.510;2024-03-25T09:10:16;17.53;;;5.83;;
26277;SDS011;14000;52.056;8.510;2024-03-25T09:13:01;21.63;;;5.60;;
26277;SDS011;14000;52.056;8.510;2024-03-25T09:15:28;29.53;;;6.30;;
26277;SDS011;14000;52.056;8.510;2024-03-25T09:17:53;31.07;;;6.33;;
26277;SDS011;14000;52.056;8.510;2024-03-25T09:20:19;20.53;;;5.83;;
26277;SDS011;14000;52.056;8.510;2024-03-25T09:22:49;21.47;;;5.57;;
26277;SDS011;14000;52.056;8.510;2024-03-25T09:25:15;20.60;;;4.93;;
26277;SDS011;14000;52.056;8.510;2024-03-25T09:27:41;19.97;;;5.30;;
26277;SDS011;14000;52.056;8.510;2024-03-25T09:30:14;23.23;;;6.37;;
26277;SDS011;14000;52.056;8.510;2024-03-25T09:32:43;24.43;;;6.17;;
26277;SDS011;14000;52.056;8.510;2024-03-25T09:35:09;23.27;;;6.63;;
26277;SDS011;14000;52.056;8.510;2024-03-25T09:37:35;23.57;;;6.13;;
26277;SDS011;14000;52.056;8.510;2024-03-25T09:40:01;24.90;;;6.33;;
26277;SDS011;14000;52.056;8.510;2024-03-25T09:42:31;29.27;;;6.73;;
26277;SDS011;14000;52.056;8.510;2024-03-25T09:45:00;17.47;;;5.03;;
26277;SDS011;14000;52.056;8.510;2024-03-25T09:47:27;25.93;;;5.67;;
26277;SDS011;14000;52.056;8.510;2024-03-25T09:49:56;25.20;;;6.73;;
26277;SDS011;14000;52.056;8.510;2024-03-25T09:52:27;23.53;;;5.30;;
26277;SDS011;14000;52.056;8.510;2024-03-25T09:54:53;28.87;;;4.93;;
26277;SDS011;14000;52.056;8.510;2024-03-25T09:57:18;21.20;;;5.50;;
26277;SDS011;14000;52.056;8.510;2024-03-25T09:59:44;22.90;;;5.50;;
26277;SDS011;14000;52.056;8.510;2024-03-25T10:02:11;27.60;;;8.00;;
26277;SDS011;14000;52.056;8.510;2024-03-25T10:04:44;22.17;;;6.93;;
26277;SDS011;14000;52.056;8.510;2024-03-25T10:07:11;23.87;;;8.03;;
26277;SDS011;14000;52.056;8.510;2024-03-25T10:09:49;26.13;;;6.93;;
26277;SDS011;14000;52.056;8.510;2024-03-25T10:12:15;23.03;;;6.50;;
26277;SDS011;14000;52.056;8.510;2024-03-25T10:14:41;23.67;;;5.83;;
26277;SDS011;14000;52.056;8.510;2024-03-25T10:17:07;23.57;;;6.50;;
26277;SDS011;14000;52.056;8.510;2024-03-25T10:19:33;22.00;;;5.40;;
26277;SDS011;14000;52.056;8.510;2024-03-25T10:22:05;28.00;;;6.57;;
26277;SDS011;14000;52.056;8.510;2024-03-25T10:24:39;19.47;;;5.13;;
26277;SDS011;14000;52.056;8.510;2024-03-25T10:27:05;23.57;;;4.70;;
26277;SDS011;14000;52.056;8.510;2024-03-25T10:29:34;15.17;;;2.77;;
26277;SDS011;14000;52.056;8.510;2024-03-25T10:32:00;15.53;;;3.33;;
26277;SDS011;14000;52.056;8.510;2024-03-25T10:34:26;14.00;;;3.67;;
26277;SDS011;14000;52.056;8.510;2024-03-25T10:36:52;20.03;;;3.90;;
26277;SDS011;14000;52.056;8.510;2024-03-25T10:39:24;14.37;;;3.90;;
26277;SDS011;14000;52.056;8.510;2024-03-25T10:41:54;17.63;;;4.30;;
26277;SDS011;14000;52.056;8.510;2024-03-25T10:44:21;20.87;;;5.03;;
26277;SDS011;14000;52.056;8.510;2024-03-25T10:46:49;17.10;;;4.63;;
26277;SDS011;14000;52.056;8.510;2024-03-25T10:50:01;17.00;;;5.03;;
26277;SDS011;14000;52.056;8.510;2024-03-25T10:52:13;14.07;;;4.50;;
26277;SDS011;14000;52.056;8.510;2024-03-25T10:54:41;24.70;;;4.73;;
26277;SDS011;14000;52.056;8.510;2024-03-25T10:57:09;16.03;;;5.43;;
26277;SDS011;14000;52.056;8.510;2024-03-25T10:59:37;18.73;;;5.53;;
26277;SDS011;14000;52.056;8.510;2024-03-25T11:02:06;25.30;;;5.83;;
26277;SDS011;14000;52.056;8.510;2024-03-25T11:04:32;22.20;;;5.87;;
26277;SDS011;14000;52.056;8.510;2024-03-25T11:07:11;25.13;;;6.33;;
26277;SDS011;14000;52.056;8.510;2024-03-25T11:09:38;23.73;;;5.70;;
26277;SDS011;14000;52.056;8.510;2024-03-25T11:12:11;24.60;;;5.43;;
26277;SDS011;14000;52.056;8.510;2024-03-25T11:14:38;16.70;;;4.40;;
26277;SDS011;14000;52.056;8.510;2024-03-25T11:17:14;17.40;;;3.40;;
26277;SDS011;14000;52.056;8.510;2024-03-25T11:19:40;16.20;;;3.40;;
26277;SDS011;14000;52.056;8.510;2024-03-25T11:22:07;17.60;;;3.63;;
26277;SDS011;14000;52.056;8.510;2024-03-25T11:24:37;14.87;;;3.93;;
26277;SDS011;14000;52.056;8.510;2024-03-25T11:27:06;13.40;;;3.30;;
26277;SDS011;14000;52.056;8.510;2024-03-25T11:29:32;19.50;;;3.47;;
26277;SDS011;14000;52.056;8.510;2024-03-25T11:31:59;18.57;;;3.10;;
26277;SDS011;14000;52.056;8.510;2024-03-25T11:34:29;17.50;;;3.47;;
26277;SDS011;14000;52.056;8.510;2024-03-25T11:36:54;17.17;;;2.90;;
26277;SDS011;14000;52.056;8.510;2024-03-25T11:39:22;12.83;;;2.70;;
26277;SDS011;14000;52.056;8.510;2024-03-25T11:41:48;23.20;;;4.17;;
26277;SDS011;14000;52.056;8.510;2024-03-25T11:44:14;15.17;;;2.73;;
26277;SDS011;14000;52.056;8.510;2024-03-25T11:46:42;12.17;;;2.43;;
26277;SDS011;14000;52.056;8.510;2024-03-25T11:49:12;13.47;;;2.80;;
26277;SDS011;14000;52.056;8.510;2024-03-25T11:51:39;15.93;;;2.97;;
26277;SDS011;14000;52.056;8.510;2024-03-25T11:54:12;11.00;;;2.80;;
26277;SDS011;14000;52.056;8.510;2024-03-25T11:56:38;14.97;;;3.27;;
26277;SDS011;14000;52.056;8.510;2024-03-25T11:59:04;13.00;;;3.23;;
26277;SDS011;14000;52.056;8.510;2024-03-25T12:01:30;11.30;;;3.20;;
26277;SDS011;14000;52.056;8.510;2024-03-25T12:03:56;17.90;;;3.60;;
26277;SDS011;14000;52.056;8.510;2024-03-25T12:06:22;16.03;;;3.47;;
26277;SDS011;14000;52.056;8.510;2024-03-25T12:08:48;16.20;;;3.30;;
26277;SDS011;14000;52.056;8.510;2024-03-25T12:11:32;16.20;;;3.63;;
26277;SDS011;14000;52.056;8.510;2024-03-25T12:13:58;18.07;;;4.17;;
26277;SDS011;14000;52.056;8.510;2024-03-25T12:16:25;16.37;;;3.70;;
26277;SDS011;14000;52.056;8.510;2024-03-25T12:18:51;13.73;;;3.40;;
26277;SDS011;14000;52.056;8.510;2024-03-25T12:21:18;13.50;;;3.07;;
26277;SDS011;14000;52.056;8.510;2024-03-25T12:23:44;18.67;;;3.57;;
26277;SDS011;14000;52.056;8.510;2024-03-25T12:26:12;14.03;;;3.17;;
26277;SDS011;14000;52.056;8.510;2024-03-25T12:28:39;13.17;;;3.43;;
26277;SDS011;14000;52.056;8.510;2024-03-25T12:31:07;19.80;;;3.30;;
26277;SDS011;14000;52.056;8.510;2024-03-25T12:33:40;12.10;;;3.17;;
26277;SDS011;14000;52.056;8.510;2024-03-25T12:36:06;11.60;;;2.57;;
26277;SDS011;14000;52.056;8.510;2024-03-25T12:38:31;13.83;;;2.30;;
26277;SDS011;14000;52.056;8.510;2024-03-25T12:41:07;11.83;;;2.70;;
26277;SDS011;14000;52.056;8.510;2024-03-25T12:43:34;13.47;;;3.07;;
26277;SDS011;14000;52.056;8.510;2024-03-25T12:46:00;13.20;;;3.20;;
26277;SDS011;14000;52.056;8.510;2024-03-25T12:48:28;18.87;;;4.80;;
26277;SDS011;14000;52.056;8.510;2024-03-25T12:50:54;15.30;;;3.97;;
26277;SDS011;14000;52.056;8.510;2024-03-25T12:53:20;17.07;;;3.60;;
26277;SDS011;14000;52.056;8.510;2024-03-25T12:55:45;15.20;;;4.00;;
26277;SDS011;14000;52.056;8.510;2024-03-25T12:58:12;13.97;;;3.30;;
26277;SDS011;14000;52.056;8.510;2024-03-25T13:00:39;15.83;;;2.93;;
26277;SDS011;14000;52.056;8.510;2024-03-25T13:03:06;11.17;;;2.73;;
26277;SDS011;14000;52.056;8.510;2024-03-25T13:05:33;14.40;;;3.20;;
26277;SDS011;14000;52.056;8.510;2024-03-25T13:08:00;17.47;;;3.33;;
26277;SDS011;14000;52.056;8.510;2024-03-25T13:10:26;15.27;;;3.10;;
26277;SDS011;14000;52.056;8.510;2024-03-25T13:12:52;15.67;;;3.43;;
26277;SDS011;14000;52.056;8.510;2024-03-25T13:15:18;14.57;;;2.77;;
26277;SDS011;14000;52.056;8.510;2024-03-25T13:17:44;12.37;;;3.10;;
26277;SDS011;14000;52.056;8.510;2024-03-25T13:20:09;18.07;;;3.10;;
26277;SDS011;14000;52.056;8.510;2024-03-25T13:22:35;17.50;;;2.73;;
26277;SDS011;14000;52.056;8.510;2024-03-25T13:25:01;16.13;;;2.97;;
26277;SDS011;14000;52.056;8.510;2024-03-25T13:27:26;10.67;;;2.33;;
26277;SDS011;14000;52.056;8.510;2024-03-25T13:29:52;17.83;;;3.30;;
26277;SDS011;14000;52.056;8.510;2024-03-25T13:32:20;18.20;;;3.43;;
26277;SDS011;14000;52.056;8.510;2024-03-25T13:34:48;13.10;;;2.73;;
26277;SDS011;14000;52.056;8.510;2024-03-25T13:37:13;13.50;;;2.77;;
26277;SDS011;14000;52.056;8.510;2024-03-25T13:39:39;13.63;;;2.80;;
26277;SDS011;14000;52.056;8.510;2024-03-25T13:42:04;13.70;;;2.73;;
26277;SDS011;14000;52.056;8.510;2024-03-25T13:44:30;15.33;;;2.80;;
26277;SDS011;14000;52.056;8.510;2024-03-25T13:46:56;13.80;;;2.97;;
26277;SDS011;14000;52.056;8.510;2024-03-25T13:49:22;14.57;;;2.37;;
26277;SDS011;14000;52.056;8.510;2024-03-25T13:51:50;14.57;;;2.83;;
26277;SDS011;14000;52.056;8.510;2024-03-25T13:54:21;14.97;;;2.60;;
26277;SDS011;14000;52.056;8.510;2024-03-25T13:56:46;12.87;;;2.60;;
26277;SDS011;14000;52.056;8.510;2024-03-25T13:59:13;11.70;;;2.63;;
26277;SDS011;14000;52.056;8.510;2024-03-25T14:01:38;13.93;;;2.13;;
26277;SDS011;14000;52.056;8.510;2024-03-25T14:04:05;13.37;;;2.70;;
26277;SDS011;14000;52.056;8.510;2024-03-25T14:06:31;14.97;;;3.20;;
26277;SDS011;14000;52.056;8.510;2024-03-25T14:08:58;12.77;;;2.40;;
26277;SDS011;14000;52.056;8.510;2024-03-25T14:11:29;14.37;;;2.73;;
26277;SDS011;14000;52.056;8.510;2024-03-25T14:13:55;14.27;;;2.40;;
26277;SDS011;14000;52.056;8.510;2024-03-25T14:16:21;12.83;;;2.20;;
26277;SDS011;14000;52.056;8.510;2024-03-25T14:18:46;18.33;;;2.83;;
26277;SDS011;14000;52.056;8.510;2024-03-25T14:21:12;17.00;;;2.80;;
26277;SDS011;14000;52.056;8.510;2024-03-25T14:23:38;13.93;;;2.47;;
26277;SDS011;14000;52.056;8.510;2024-03-25T14:26:08;13.90;;;2.43;;
26277;SDS011;14000;52.056;8.510;2024-03-25T14:28:37;13.50;;;2.43;;
26277;SDS011;14000;52.056;8.510;2024-03-25T14:31:03;12.50;;;2.30;;